createdAt,value
2023-04-22T00:01:39.534Z,100580.91
2023-04-22T00:07:15.414Z,100580.13
2023-04-22T00:09:42.426Z,100590.56
2023-04-22T00:12:13.760Z,100583.38
2023-04-22T00:14:40.982Z,100576.06
2023-04-22T00:17:07.704Z,100575.34
2023-04-22T00:19:35.115Z,100572.94
2023-04-22T00:22:02.063Z,100583.38
2023-04-22T00:24:29.297Z,100582.34
2023-04-22T00:26:56.064Z,100583.03
2023-04-22T00:29:25.493Z,100585.81
2023-04-22T00:31:52.300Z,100589.31
2023-04-22T00:34:19.657Z,100596.13
2023-04-22T00:36:46.528Z,100592.78
2023-04-22T00:39:14.041Z,100588.81
2023-04-22T00:41:40.741Z,100606.06
2023-04-22T00:44:11.309Z,100599.47
2023-04-22T00:46:41.776Z,100605.13
2023-04-22T00:49:08.462Z,100610.03
2023-04-22T00:51:38.999Z,100603.31
2023-04-22T00:54:06.508Z,100605.50
2023-04-22T00:56:36.050Z,100600.06
2023-04-22T00:59:03.097Z,100606.41
2023-04-22T01:01:30.530Z,100607.34
2023-04-22T01:03:59.017Z,100605.13
2023-04-22T01:06:28.157Z,100601.09
2023-04-22T01:08:54.866Z,100602.00
2023-04-22T01:11:21.666Z,100610.91
2023-04-22T01:13:48.469Z,100607.31
2023-04-22T01:16:15.524Z,100610.75
2023-04-22T01:18:42.364Z,100605.13
2023-04-22T01:21:09.110Z,100600.06
2023-04-22T01:23:38.585Z,100598.41
2023-04-22T01:26:06.058Z,100603.06
2023-04-22T01:28:33.010Z,100606.31
2023-04-22T01:30:59.766Z,100608.47
2023-04-22T01:33:26.750Z,100597.66
2023-04-22T01:35:53.757Z,100597.53
2023-04-22T01:38:20.398Z,100600.84
2023-04-22T01:40:46.964Z,100593.34
2023-04-22T01:43:13.612Z,100588.88
2023-04-22T01:45:40.512Z,100589.81
2023-04-22T01:48:07.474Z,100577.38
2023-04-22T01:50:34.215Z,100581.19
2023-04-22T01:53:01.368Z,100580.66
2023-04-22T01:55:27.988Z,100575.47
2023-04-22T01:57:54.710Z,100584.22
2023-04-22T02:00:21.307Z,100588.75
2023-04-22T02:02:48.349Z,100587.75
2023-04-22T02:05:15.942Z,100593.38
2023-04-22T02:07:45.788Z,100587.13
2023-04-22T02:10:16.076Z,100587.75
2023-04-22T02:12:43.040Z,100578.91
2023-04-22T02:15:10.301Z,100574.13
2023-04-22T02:17:37.612Z,100577.44
2023-04-22T02:20:09.180Z,100579.50
2023-04-22T02:22:36.781Z,100575.16
2023-04-22T02:25:07.058Z,100563.91
2023-04-22T02:27:33.889Z,100565.34
2023-04-22T02:30:00.444Z,100566.75
2023-04-22T02:32:28.583Z,100568.44
2023-04-22T02:34:55.634Z,100566.97
2023-04-22T02:37:23.035Z,100570.34
2023-04-22T02:39:49.855Z,100563.94
2023-04-22T02:42:17.420Z,100568.97
2023-04-22T02:44:44.063Z,100569.13
2023-04-22T02:47:10.691Z,100568.69
2023-04-22T02:49:37.772Z,100565.59
2023-04-22T02:52:05.068Z,100567.31
2023-04-22T02:54:31.597Z,100565.88
2023-04-22T02:56:59.838Z,100563.47
2023-04-22T02:59:26.827Z,100566.69
2023-04-22T03:01:54.110Z,100562.38
2023-04-22T03:04:35.840Z,100563.25
2023-04-22T03:07:03.184Z,100556.66
2023-04-22T03:09:29.711Z,100550.44
2023-04-22T03:11:56.626Z,100555.66
2023-04-22T03:14:23.451Z,100549.59
2023-04-22T03:16:50.285Z,100547.19
2023-04-22T03:19:17.704Z,100547.03
2023-04-22T03:21:44.375Z,100543.66
2023-04-22T03:24:11.531Z,100541.03
2023-04-22T03:26:44.681Z,100538.34
2023-04-22T03:29:11.657Z,100539.59
2023-04-22T03:31:38.356Z,100531.41
2023-04-22T03:34:06.241Z,100526.19
2023-04-22T03:36:32.975Z,100517.34
2023-04-22T03:38:59.586Z,100522.78
2023-04-22T03:41:27.217Z,100510.88
2023-04-22T03:43:54.005Z,100503.03
2023-04-22T03:46:21.206Z,100500.81
2023-04-22T03:48:59.555Z,100497.22
2023-04-22T03:51:29.196Z,100494.19
2023-04-22T03:53:57.791Z,100488.31
2023-04-22T03:56:26.787Z,100486.13
2023-04-22T03:58:57.113Z,100481.28
2023-04-22T04:01:24.763Z,100482.31
2023-04-22T04:03:55.696Z,100492.16
2023-04-22T04:06:26.484Z,100492.75
2023-04-22T04:08:53.103Z,100491.91
2023-04-22T04:11:19.796Z,100490.56
2023-04-22T04:13:47.172Z,100492.00
2023-04-22T04:16:18.867Z,100496.16
2023-04-22T04:18:51.428Z,100473.84
2023-04-22T04:21:20.203Z,100470.63
2023-04-22T04:23:50.533Z,100475.47
2023-04-22T04:26:21.360Z,100471.63
2023-04-22T04:28:52.698Z,100472.84
2023-04-22T04:31:19.803Z,100461.53
2023-04-22T04:33:49.491Z,100470.56
2023-04-22T04:36:16.390Z,100468.41
2023-04-22T04:38:43.644Z,100467.41
2023-04-22T04:41:10.708Z,100477.06
2023-04-22T04:43:37.773Z,100466.59
2023-04-22T04:46:16.650Z,100466.59
2023-04-22T04:48:43.914Z,100469.19
2023-04-22T04:51:11.695Z,100471.59
2023-04-22T04:53:44.989Z,100474.41
2023-04-22T04:56:11.642Z,100474.25
2023-04-22T04:58:38.485Z,100478.47
2023-04-22T05:01:12.332Z,100482.91
2023-04-22T05:03:40.720Z,100477.88
2023-04-22T05:06:08.169Z,100478.88
2023-04-22T05:08:37.000Z,100476.44
2023-04-22T05:11:08.147Z,100472.44
2023-04-22T05:13:35.334Z,100475.19
2023-04-22T05:16:02.899Z,100471.03
2023-04-22T05:18:29.664Z,100482.53
2023-04-22T05:20:59.471Z,100484.53
2023-04-22T05:23:26.824Z,100482.53
2023-04-22T05:25:56.822Z,100482.72
2023-04-22T05:28:24.241Z,100481.28
2023-04-22T05:30:54.584Z,100488.34
2023-04-22T05:33:21.247Z,100485.66
2023-04-22T05:35:48.956Z,100484.50
2023-04-22T05:38:15.792Z,100476.16
2023-04-22T05:40:42.431Z,100489.72
2023-04-22T05:43:15.670Z,100476.38
2023-04-22T05:45:47.906Z,100476.38
2023-04-22T05:48:18.561Z,100474.16
2023-04-22T05:50:56.480Z,100468.44
2023-04-22T05:53:23.619Z,100467.41
2023-04-22T05:55:50.666Z,100472.59
2023-04-22T05:58:18.218Z,100472.66
2023-04-22T06:00:51.582Z,100466.00
2023-04-22T06:03:36.946Z,100465.25
2023-04-22T06:06:04.527Z,100458.06
2023-04-22T06:08:31.879Z,100463.16
2023-04-22T06:10:58.714Z,100459.63
2023-04-22T06:13:28.429Z,100464.13
2023-04-22T06:15:55.619Z,100462.75
2023-04-22T06:18:22.263Z,100455.78
2023-04-22T06:20:50.512Z,100454.97
2023-04-22T06:23:18.358Z,100451.06
2023-04-22T06:25:45.362Z,100455.69
2023-04-22T06:28:11.956Z,100451.53
2023-04-22T06:30:39.402Z,100453.34
2023-04-22T06:33:06.407Z,100452.78
2023-04-22T06:35:33.239Z,100443.50
2023-04-22T06:38:00.347Z,100446.31
2023-04-22T06:40:32.022Z,100438.81
2023-04-22T06:43:06.302Z,100444.97
2023-04-22T06:45:50.768Z,100435.63
2023-04-22T06:48:24.558Z,100439.13
2023-04-22T06:51:11.509Z,100436.72
2023-04-22T06:53:38.202Z,100438.22
2023-04-22T06:56:05.982Z,100434.16
2023-04-22T06:58:33.031Z,100444.09
2023-04-22T07:00:59.912Z,100453.72
2023-04-22T07:03:27.569Z,100450.63
2023-04-22T07:06:01.530Z,100446.69
2023-04-22T07:08:30.265Z,100436.84
2023-04-22T07:10:57.844Z,100443.41
2023-04-22T07:13:42.966Z,100435.94
2023-04-22T07:16:10.100Z,100436.75
2023-04-22T07:18:36.961Z,100441.19
2023-04-22T07:21:03.695Z,100439.84
2023-04-22T07:23:30.317Z,100449.28
2023-04-22T07:25:57.283Z,100448.19
2023-04-22T07:28:24.031Z,100443.50
2023-04-22T07:30:52.065Z,100435.03
2023-04-22T07:33:19.874Z,100442.59
2023-04-22T07:35:47.257Z,100443.75
2023-04-22T07:38:14.730Z,100457.06
2023-04-22T07:40:41.623Z,100460.81
2023-04-22T07:43:08.354Z,100444.88
2023-04-22T07:45:38.199Z,100428.38
2023-04-22T07:48:05.027Z,100411.81
2023-04-22T07:50:32.055Z,100418.53
2023-04-22T07:52:58.918Z,100415.78
2023-04-22T07:55:25.679Z,100412.69
2023-04-22T07:57:52.333Z,100411.56
2023-04-22T08:00:19.003Z,100411.31
2023-04-22T08:02:46.891Z,100406.25
2023-04-22T08:05:13.823Z,100412.69
2023-04-22T08:07:40.553Z,100411.97
2023-04-22T08:10:07.700Z,100408.09
2023-04-22T08:12:34.443Z,100406.88
2023-04-22T08:15:01.281Z,100403.81
2023-04-22T08:17:28.002Z,100399.16
2023-04-22T08:19:54.743Z,100396.44
2023-04-22T08:22:21.407Z,100394.22
2023-04-22T08:24:47.991Z,100384.63
2023-04-22T08:27:14.635Z,100389.81
2023-04-22T08:29:41.355Z,100393.88
2023-04-22T08:32:08.223Z,100390.00
2023-04-22T08:34:34.988Z,100377.72
2023-04-22T08:37:02.593Z,100381.50
2023-04-22T08:39:29.427Z,100368.94
2023-04-22T08:41:56.530Z,100370.75
2023-04-22T08:44:23.577Z,100363.34
2023-04-22T08:46:51.947Z,100353.59
2023-04-22T08:49:19.580Z,100340.00
2023-04-22T08:51:46.506Z,100335.59
2023-04-22T08:54:13.190Z,100338.34
2023-04-22T08:56:42.469Z,100335.88
2023-04-22T08:59:11.575Z,100338.84
2023-04-22T09:01:42.272Z,100323.50
2023-04-22T09:04:15.198Z,100327.09
2023-04-22T09:06:42.174Z,100332.09
2023-04-22T09:09:09.043Z,100332.56
2023-04-22T09:11:37.357Z,100334.88
2023-04-22T09:14:07.288Z,100338.44
2023-04-22T09:16:34.294Z,100324.56
2023-04-22T09:19:01.622Z,100334.06
2023-04-22T09:21:29.221Z,100345.34
2023-04-22T09:23:56.929Z,100342.72
2023-04-22T09:26:24.927Z,100338.78
2023-04-22T09:28:51.500Z,100339.88
2023-04-22T09:31:18.298Z,100342.13
2023-04-22T09:33:50.701Z,100341.69
2023-04-22T09:36:21.376Z,100341.75
2023-04-22T09:38:58.605Z,100341.09
2023-04-22T09:41:32.673Z,100352.34
2023-04-22T09:44:01.445Z,100363.28
2023-04-22T09:46:30.045Z,100365.56
2023-04-22T09:48:58.613Z,100358.63
2023-04-22T09:51:25.557Z,100357.59
2023-04-22T09:54:05.134Z,100344.81
2023-04-22T09:56:52.180Z,100357.63
2023-04-22T09:59:23.367Z,100354.66
2023-04-22T10:01:53.248Z,100349.41
2023-04-22T10:04:24.850Z,100350.19
2023-04-22T10:06:52.900Z,100344.28
2023-04-22T10:09:22.292Z,100343.53
2023-04-22T10:11:51.373Z,100350.72
2023-04-22T10:14:18.334Z,100352.56
2023-04-22T10:16:47.303Z,100358.69
2023-04-22T10:19:21.004Z,100360.41
2023-04-22T10:21:50.823Z,100356.25
2023-04-22T10:24:19.095Z,100343.72
2023-04-22T10:26:59.086Z,100345.00
2023-04-22T10:29:27.643Z,100332.94
2023-04-22T10:31:59.323Z,100344.88
2023-04-22T10:34:26.045Z,100343.91
2023-04-22T10:37:12.490Z,100342.13
2023-04-22T10:39:42.723Z,100335.06
2023-04-22T10:42:12.881Z,100327.28
2023-04-22T10:44:45.728Z,100330.69
2023-04-22T10:47:12.411Z,100321.97
2023-04-22T10:49:39.272Z,100332.63
2023-04-22T10:52:08.004Z,100345.94
2023-04-22T10:54:37.864Z,100350.13
2023-04-22T10:57:14.762Z,100365.59
2023-04-22T10:59:45.818Z,100375.81
2023-04-22T11:02:15.266Z,100378.25
2023-04-22T11:04:42.836Z,100379.69
2023-04-22T11:07:20.554Z,100387.16
2023-04-22T11:09:51.328Z,100383.78
2023-04-22T11:12:39.107Z,100377.34
2023-04-22T11:15:07.151Z,100363.91
2023-04-22T11:17:34.568Z,100367.44
2023-04-22T11:20:02.141Z,100358.31
2023-04-22T11:22:35.974Z,100369.88
2023-04-22T11:25:06.606Z,100376.69
2023-04-22T11:27:34.064Z,100376.16
2023-04-22T11:30:04.840Z,100383.72
2023-04-22T11:32:32.230Z,100386.56
2023-04-22T11:35:12.961Z,100388.09
2023-04-22T11:38:04.049Z,100388.38
2023-04-22T11:40:37.831Z,100390.22
2023-04-22T11:43:08.161Z,100393.75
2023-04-22T11:45:38.689Z,100400.03
2023-04-22T11:48:08.379Z,100397.81
2023-04-22T11:50:40.619Z,100395.56
2023-04-22T11:53:21.536Z,100388.06
2023-04-22T11:56:12.633Z,100377.50
2023-04-22T11:58:41.887Z,100367.16
2023-04-22T12:01:12.837Z,100370.16
2023-04-22T12:03:39.690Z,100364.56
2023-04-22T12:06:06.973Z,100368.00
2023-04-22T12:08:37.057Z,100370.78
2023-04-22T12:11:08.857Z,100376.31
2023-04-22T12:13:38.851Z,100367.22
2023-04-22T12:16:18.085Z,100378.97
2023-04-22T12:18:51.675Z,100382.56
2023-04-22T12:21:23.576Z,100377.03
2023-04-22T12:23:58.508Z,100383.00
2023-04-22T12:26:27.548Z,100381.22
2023-04-22T12:28:56.508Z,100390.13
2023-04-22T12:31:23.142Z,100391.66
2023-04-22T12:33:50.349Z,100398.47
2023-04-22T12:36:18.469Z,100385.63
2023-04-22T12:38:45.084Z,100391.50
2023-04-22T12:41:11.708Z,100394.34
2023-04-22T12:43:39.522Z,100387.63
2023-04-22T12:46:08.238Z,100389.19
2023-04-22T12:48:40.171Z,100388.78
2023-04-22T12:51:07.279Z,100404.22
2023-04-22T12:53:34.377Z,100407.94
2023-04-22T12:56:01.187Z,100407.81
2023-04-22T12:58:28.572Z,100409.25
2023-04-22T13:00:56.900Z,100399.69
2023-04-22T13:03:23.725Z,100412.81
2023-04-22T13:05:51.191Z,100404.47
2023-04-22T13:08:18.046Z,100417.34
2023-04-22T13:10:44.744Z,100411.69
2023-04-22T13:15:41.453Z,100406.53
2023-04-22T13:18:10.590Z,100401.34
2023-04-22T13:20:38.423Z,100406.94
2023-04-22T13:23:05.228Z,100410.03
2023-04-22T13:25:32.029Z,100397.47
2023-04-22T13:27:58.616Z,100392.16
2023-04-22T13:30:25.354Z,100383.22
2023-04-22T13:32:52.114Z,100388.56
2023-04-22T13:35:19.204Z,100387.69
2023-04-22T13:37:46.990Z,100393.69
2023-04-22T13:40:13.789Z,100390.63
2023-04-22T13:42:42.660Z,100382.69
2023-04-22T13:45:09.901Z,100380.69
2023-04-22T13:47:37.205Z,100376.53
2023-04-22T13:50:05.996Z,100380.22
2023-04-22T13:52:32.728Z,100387.66
2023-04-22T13:54:59.528Z,100379.69
2023-04-22T13:57:27.904Z,100378.09
2023-04-22T13:59:54.661Z,100383.63
2023-04-22T14:02:24.164Z,100380.91
2023-04-22T14:04:51.226Z,100384.81
2023-04-22T14:07:18.558Z,100386.03
2023-04-22T14:09:45.442Z,100373.25
2023-04-22T14:12:13.378Z,100377.59
2023-04-22T14:14:40.199Z,100377.28
2023-04-22T14:17:08.956Z,100370.97
2023-04-22T14:19:39.406Z,100380.06
2023-04-22T14:22:06.807Z,100381.56
2023-04-22T14:24:34.040Z,100374.38
2023-04-22T14:27:03.536Z,100377.91
2023-04-22T14:29:32.089Z,100376.88
2023-04-22T14:31:59.617Z,100377.91
2023-04-22T14:34:27.455Z,100383.28
2023-04-22T14:36:54.559Z,100384.88
2023-04-22T14:39:21.547Z,100384.44
2023-04-22T14:41:48.395Z,100386.53
2023-04-22T14:44:15.157Z,100385.50
2023-04-22T14:46:45.935Z,100396.22
2023-04-22T14:49:12.691Z,100389.56
2023-04-22T14:51:46.137Z,100393.03
2023-04-22T14:54:17.370Z,100397.13
2023-04-22T14:56:44.734Z,100389.59
2023-04-22T14:59:11.292Z,100398.88
2023-04-22T15:01:40.963Z,100392.72
2023-04-22T15:04:12.687Z,100396.19
2023-04-22T15:06:39.576Z,100401.47
2023-04-22T15:09:07.160Z,100394.56
2023-04-22T15:11:33.730Z,100411.41
2023-04-22T15:14:00.249Z,100397.09
2023-04-22T15:16:27.382Z,100403.59
2023-04-22T15:18:54.990Z,100400.63
2023-04-22T15:21:21.631Z,100409.59
2023-04-22T15:23:49.685Z,100418.25
2023-04-22T15:26:16.524Z,100411.06
2023-04-22T15:28:43.483Z,100418.88
2023-04-22T15:31:10.245Z,100422.81
2023-04-22T15:33:38.341Z,100426.19
2023-04-22T15:36:09.198Z,100423.66
2023-04-22T15:38:38.469Z,100432.72
2023-04-22T15:41:05.013Z,100440.19
2023-04-22T15:43:31.884Z,100437.31
2023-04-22T15:45:59.115Z,100445.91
2023-04-22T15:48:25.883Z,100442.81
2023-04-22T15:50:52.652Z,100444.13
2023-04-22T15:53:19.351Z,100443.69
2023-04-22T15:55:47.430Z,100437.84
2023-04-22T15:58:15.296Z,100442.44
2023-04-22T16:00:44.963Z,100448.16
2023-04-22T16:03:12.200Z,100456.50
2023-04-22T16:05:39.000Z,100457.09
2023-04-22T16:08:05.730Z,100456.38
2023-04-22T16:10:32.390Z,100456.13
2023-04-22T16:13:01.063Z,100458.75
2023-04-22T16:15:28.164Z,100461.03
2023-04-22T16:17:55.758Z,100458.03
2023-04-22T16:20:25.454Z,100459.00
2023-04-22T16:22:52.024Z,100465.69
2023-04-22T16:25:19.003Z,100461.50
2023-04-22T16:27:46.129Z,100457.44
2023-04-22T16:30:16.086Z,100457.00
2023-04-22T16:32:43.000Z,100452.66
2023-04-22T16:35:10.512Z,100454.13
2023-04-22T16:37:37.978Z,100452.91
2023-04-22T16:40:06.337Z,100452.31
2023-04-22T16:42:35.895Z,100457.13
2023-04-22T16:45:02.798Z,100455.00
2023-04-22T16:47:29.460Z,100458.28
2023-04-22T16:49:56.152Z,100459.13
2023-04-22T16:52:22.930Z,100480.13
2023-04-22T16:54:51.434Z,100481.19
2023-04-22T16:57:18.227Z,100469.38
2023-04-22T16:59:47.598Z,100470.72
2023-04-22T17:02:14.563Z,100480.06
2023-04-22T17:04:41.412Z,100483.94
2023-04-22T17:07:09.710Z,100490.13
2023-04-22T17:09:36.395Z,100488.34
2023-04-22T17:12:03.268Z,100495.31
2023-04-22T17:14:34.324Z,100502.09
2023-04-22T17:17:01.198Z,100502.31
2023-04-22T17:19:27.965Z,100507.69
2023-04-22T17:21:57.105Z,100509.47
2023-04-22T17:24:24.842Z,100507.41
2023-04-22T17:26:51.614Z,100513.06
2023-04-22T17:29:23.478Z,100506.63
2023-04-22T17:31:50.743Z,100512.63
2023-04-22T17:34:18.495Z,100511.78
2023-04-22T17:36:46.090Z,100518.38
2023-04-22T17:39:13.402Z,100528.94
2023-04-22T17:41:40.429Z,100526.50
2023-04-22T17:44:08.889Z,100524.72
2023-04-22T17:46:36.086Z,100518.09
2023-04-22T17:49:03.419Z,100523.41
2023-04-22T17:51:37.467Z,100530.47
2023-04-22T17:54:05.438Z,100530.91
2023-04-22T17:56:34.443Z,100540.09
2023-04-22T17:59:01.273Z,100533.72
2023-04-22T18:01:30.102Z,100534.66
2023-04-22T18:04:02.222Z,100536.53
2023-04-22T18:06:30.694Z,100536.28
2023-04-22T18:08:57.669Z,100531.75
2023-04-22T18:11:25.900Z,100539.03
2023-04-22T18:13:52.600Z,100545.97
2023-04-22T18:16:22.075Z,100539.03
2023-04-22T18:18:49.018Z,100546.25
2023-04-22T18:21:16.581Z,100549.00
2023-04-22T18:23:43.306Z,100561.97
2023-04-22T18:26:12.562Z,100565.00
2023-04-22T18:28:43.659Z,100570.69
2023-04-22T18:31:10.478Z,100572.09
2023-04-22T18:33:37.455Z,100561.78
2023-04-22T18:36:04.429Z,100561.19
2023-04-22T18:38:31.201Z,100570.94
2023-04-22T18:40:57.841Z,100568.13
2023-04-22T18:43:24.526Z,100567.94
2023-04-22T18:45:51.196Z,100580.47
2023-04-22T18:48:18.837Z,100584.72
2023-04-22T18:50:45.717Z,100577.25
2023-04-22T18:53:12.594Z,100575.25
2023-04-22T18:55:40.536Z,100586.97
2023-04-22T18:58:09.210Z,100586.19
2023-04-22T19:00:36.030Z,100599.50
2023-04-22T19:03:02.803Z,100610.78
2023-04-22T19:05:29.606Z,100603.94
2023-04-22T19:07:56.511Z,100606.75
2023-04-22T19:10:23.117Z,100623.91
2023-04-22T19:12:49.865Z,100610.38
2023-04-22T19:15:19.325Z,100607.75
2023-04-22T19:17:46.352Z,100597.91
2023-04-22T19:20:13.182Z,100603.53
2023-04-22T19:22:39.894Z,100603.13
2023-04-22T19:25:09.316Z,100607.56
2023-04-22T19:27:36.018Z,100614.25
2023-04-22T19:30:04.285Z,100626.16
2023-04-22T19:32:31.001Z,100616.66
2023-04-22T19:34:58.157Z,100624.16
2023-04-22T19:37:25.987Z,100619.06
2023-04-22T19:39:52.651Z,100618.28
2023-04-22T19:42:20.931Z,100623.72
2023-04-22T19:44:48.348Z,100625.72
2023-04-22T19:47:15.676Z,100621.69
2023-04-22T19:49:43.200Z,100623.91
2023-04-22T19:52:11.729Z,100617.66
2023-04-22T19:54:41.383Z,100620.91
2023-04-22T19:57:09.323Z,100610.00
2023-04-22T19:59:36.187Z,100612.81
2023-04-22T20:02:03.516Z,100603.94
2023-04-22T20:04:30.680Z,100617.28
2023-04-22T20:06:59.018Z,100611.03
2023-04-22T20:09:27.451Z,100609.19
2023-04-22T20:11:57.806Z,100601.72
2023-04-22T20:14:26.621Z,100597.50
2023-04-22T20:16:54.288Z,100605.56
2023-04-22T20:19:21.002Z,100602.13
2023-04-22T20:21:50.253Z,100603.16
2023-04-22T20:24:20.233Z,100600.28
2023-04-22T20:26:47.768Z,100597.50
2023-04-22T20:29:16.289Z,100595.47
2023-04-22T20:31:43.397Z,100599.28
2023-04-22T20:34:11.509Z,100599.28
2023-04-22T20:36:38.951Z,100591.44
2023-04-22T20:39:06.237Z,100590.63
2023-04-22T20:41:39.157Z,100585.38
2023-04-22T20:44:06.463Z,100581.31
2023-04-22T20:46:33.724Z,100581.53
2023-04-22T20:49:01.142Z,100577.09
2023-04-22T20:51:32.038Z,100589.81
2023-04-22T20:54:14.668Z,100595.28
2023-04-22T20:56:53.024Z,100604.34
2023-04-22T20:59:19.778Z,100595.44
2023-04-22T21:01:47.612Z,100598.69
2023-04-22T21:04:14.732Z,100615.06
2023-04-22T21:06:45.333Z,100608.38
2023-04-22T21:09:13.160Z,100614.00
2023-04-22T21:11:40.178Z,100622.91
2023-04-22T21:14:07.920Z,100616.47
2023-04-22T21:16:39.492Z,100615.44
2023-04-22T21:19:09.868Z,100615.44
2023-04-22T21:21:37.363Z,100607.34
2023-04-22T21:24:08.117Z,100605.34
2023-04-22T21:26:38.092Z,100599.50
2023-04-22T21:29:05.112Z,100598.09
2023-04-22T21:31:34.104Z,100594.25
2023-04-22T21:34:04.571Z,100592.22
2023-04-22T21:36:31.803Z,100586.97
2023-04-22T21:39:00.076Z,100591.41
2023-04-22T21:41:26.926Z,100594.66
2023-04-22T21:43:53.735Z,100595.88
2023-04-22T21:46:22.114Z,100603.53
2023-04-22T21:48:48.748Z,100591.84
2023-04-22T21:51:15.707Z,100590.22
2023-04-22T21:53:42.353Z,100594.63
2023-04-22T21:56:09.089Z,100592.22
2023-04-22T21:58:35.957Z,100595.88
2023-04-22T22:01:02.880Z,100591.63
2023-04-22T22:03:29.680Z,100593.22
2023-04-22T22:05:56.873Z,100605.13
2023-04-22T22:08:23.542Z,100601.09
2023-04-22T22:10:52.020Z,100603.94
2023-04-22T22:13:18.717Z,100611.59
2023-04-22T22:15:45.518Z,100617.66
2023-04-22T22:18:12.221Z,100613.22
2023-04-22T22:20:39.488Z,100612.22
2023-04-22T22:23:06.223Z,100607.97
2023-04-22T22:25:32.931Z,100619.69
2023-04-22T22:28:00.008Z,100616.44
2023-04-22T22:30:26.766Z,100621.91
2023-04-22T22:32:53.348Z,100611.19
2023-04-22T22:35:20.930Z,100612.03
2023-04-22T22:37:47.679Z,100605.97
2023-04-22T22:40:14.645Z,100604.34
2023-04-22T22:42:41.261Z,100600.53
2023-04-22T22:45:08.963Z,100601.94
2023-04-22T22:47:39.749Z,100599.28
2023-04-22T22:50:08.756Z,100598.50
2023-04-22T22:52:38.914Z,100605.97
2023-04-22T22:55:06.274Z,100594.84
2023-04-22T22:57:38.637Z,100595.28
2023-04-22T23:00:08.472Z,100593.44
2023-04-22T23:02:35.644Z,100591.44
2023-04-22T23:05:04.549Z,100591.63
2023-04-22T23:07:31.160Z,100591.44
2023-04-22T23:09:57.877Z,100589.81
2023-04-22T23:12:24.916Z,100594.63
2023-04-22T23:14:51.545Z,100593.84
2023-04-22T23:17:18.463Z,100597.88
2023-04-22T23:19:45.684Z,100583.97
2023-04-22T23:22:14.162Z,100592.00
2023-04-22T23:24:41.816Z,100589.78
2023-04-22T23:27:08.928Z,100579.16
2023-04-22T23:29:36.803Z,100582.34
2023-04-22T23:32:05.449Z,100572.47
2023-04-22T23:34:33.667Z,100576.91
2023-04-22T23:37:05.495Z,100573.06
2023-04-22T23:39:32.588Z,100570.22
2023-04-22T23:41:59.221Z,100565.50
2023-04-22T23:44:25.982Z,100560.34
2023-04-22T23:46:52.682Z,100558.72
2023-04-22T23:49:20.151Z,100553.50
2023-04-22T23:51:47.197Z,100550.47
2023-04-22T23:54:15.976Z,100543.44
2023-04-22T23:56:43.370Z,100541.41
2023-04-22T23:59:11.806Z,100542.19
